sensor_id;sensor_type;location;lat;lon;timestamp;P1;durP1;ratioP1;P2;durP2;ratioP2
4432;SDS011;2229;48.708;9.706;2024-03-23T00:52:20;11.20;;;3.90;;
4432;SDS011;2229;48.708;9.706;2024-03-23T00:54:47;5.80;;;2.90;;
4432;SDS011;2229;48.708;9.706;2024-03-23T00:57:14;7.23;;;4.20;;
4432;SDS011;2229;48.708;9.706;2024-03-23T00:59:40;5.70;;;3.77;;
4432;SDS011;2229;48.708;9.706;2024-03-23T01:02:07;5.73;;;3.10;;
4432;SDS011;2229;48.708;9.706;2024-03-23T01:04:33;6.33;;;3.23;;
4432;SDS011;2229;48.708;9.706;2024-03-23T01:07:00;7.30;;;3.37;;
4432;SDS011;2229;48.708;9.706;2024-03-23T01:09:28;5.57;;;2.73;;
4432;SDS011;2229;48.708;9.706;2024-03-23T01:11:55;8.90;;;3.33;;
4432;SDS011;2229;48.708;9.706;2024-03-23T01:14:21;5.23;;;3.57;;
4432;SDS011;2229;48.708;9.706;2024-03-23T01:16:48;5.70;;;3.20;;
4432;SDS011;2229;48.708;9.706;2024-03-23T01:19:14;4.73;;;2.17;;
4432;SDS011;2229;48.708;9.706;2024-03-23T01:21:41;6.93;;;2.80;;
4432;SDS011;2229;48.708;9.706;2024-03-23T01:24:08;8.03;;;3.40;;
4432;SDS011;2229;48.708;9.706;2024-03-23T01:26:38;4.50;;;2.60;;
4432;SDS011;2229;48.708;9.706;2024-03-23T01:29:04;5.40;;;2.77;;
4432;SDS011;2229;48.708;9.706;2024-03-23T01:31:31;9.30;;;3.00;;
4432;SDS011;2229;48.708;9.706;2024-03-23T01:33:57;7.23;;;3.50;;
4432;SDS011;2229;48.708;9.706;2024-03-23T01:36:24;6.10;;;2.53;;
4432;SDS011;2229;48.708;9.706;2024-03-23T01:38:50;9.70;;;2.77;;
4432;SDS011;2229;48.708;9.706;2024-03-23T01:41:18;4.87;;;2.30;;
4432;SDS011;2229;48.708;9.706;2024-03-23T01:43:46;4.77;;;3.73;;
4432;SDS011;2229;48.708;9.706;2024-03-23T01:46:13;4.97;;;2.53;;
4432;SDS011;2229;48.708;9.706;2024-03-23T01:48:39;3.90;;;2.50;;
4432;SDS011;2229;48.708;9.706;2024-03-23T01:51:06;5.80;;;2.83;;
4432;SDS011;2229;48.708;9.706;2024-03-23T01:53:33;6.43;;;2.73;;
4432;SDS011;2229;48.708;9.706;2024-03-23T01:56:00;6.47;;;4.00;;
4432;SDS011;2229;48.708;9.706;2024-03-23T01:58:27;3.80;;;2.30;;
4432;SDS011;2229;48.708;9.706;2024-03-23T02:00:57;4.27;;;2.07;;
4432;SDS011;2229;48.708;9.706;2024-03-23T02:03:24;3.60;;;1.67;;
4432;SDS011;2229;48.708;9.706;2024-03-23T02:05:52;7.80;;;2.50;;
4432;SDS011;2229;48.708;9.706;2024-03-23T02:08:19;3.60;;;2.57;;
4432;SDS011;2229;48.708;9.706;2024-03-23T02:10:47;5.10;;;2.53;;
4432;SDS011;2229;48.708;9.706;2024-03-23T02:13:14;3.80;;;2.50;;
4432;SDS011;2229;48.708;9.706;2024-03-23T02:15:41;6.43;;;2.97;;
4432;SDS011;2229;48.708;9.706;2024-03-23T02:18:09;6.90;;;3.87;;
4432;SDS011;2229;48.708;9.706;2024-03-23T02:20:37;9.03;;;4.53;;
4432;SDS011;2229;48.708;9.706;2024-03-23T02:23:05;10.10;;;3.90;;
4432;SDS011;2229;48.708;9.706;2024-03-23T02:25:32;9.77;;;4.33;;
4432;SDS011;2229;48.708;9.706;2024-03-23T02:27:59;8.50;;;4.40;;
4432;SDS011;2229;48.708;9.706;2024-03-23T02:30:26;6.97;;;4.30;;
4432;SDS011;2229;48.708;9.706;2024-03-23T02:32:52;14.20;;;4.53;;
4432;SDS011;2229;48.708;9.706;2024-03-23T02:35:19;8.93;;;4.50;;
4432;SDS011;2229;48.708;9.706;2024-03-23T02:37:46;6.37;;;3.40;;
4432;SDS011;2229;48.708;9.706;2024-03-23T02:40:16;5.73;;;2.37;;
4432;SDS011;2229;48.708;9.706;2024-03-23T02:42:43;3.73;;;2.10;;
4432;SDS011;2229;48.708;9.706;2024-03-23T02:45:12;5.57;;;2.13;;
4432;SDS011;2229;48.708;9.706;2024-03-23T02:47:40;6.27;;;2.53;;
4432;SDS011;2229;48.708;9.706;2024-03-23T02:50:07;2.20;;;1.40;;
4432;SDS011;2229;48.708;9.706;2024-03-23T02:52:34;3.60;;;2.10;;
4432;SDS011;2229;48.708;9.706;2024-03-23T02:55:02;6.53;;;1.80;;
4432;SDS011;2229;48.708;9.706;2024-03-23T02:57:30;2.67;;;1.90;;
4432;SDS011;2229;48.708;9.706;2024-03-23T02:59:57;3.63;;;2.20;;
4432;SDS011;2229;48.708;9.706;2024-03-23T03:02:23;2.40;;;1.50;;
4432;SDS011;2229;48.708;9.706;2024-03-23T03:04:50;2.53;;;1.70;;
4432;SDS011;2229;48.708;9.706;2024-03-23T03:07:16;8.30;;;3.40;;
4432;SDS011;2229;48.708;9.706;2024-03-23T03:09:43;11.37;;;5.50;;
4432;SDS011;2229;48.708;9.706;2024-03-23T03:12:09;5.77;;;3.43;;
4432;SDS011;2229;48.708;9.706;2024-03-23T03:14:37;7.50;;;3.07;;
4432;SDS011;2229;48.708;9.706;2024-03-23T03:17:03;3.90;;;2.50;;
4432;SDS011;2229;48.708;9.706;2024-03-23T03:19:30;7.10;;;2.50;;
4432;SDS011;2229;48.708;9.706;2024-03-23T03:21:58;9.30;;;4.23;;
4432;SDS011;2229;48.708;9.706;2024-03-23T03:24:25;5.40;;;2.47;;
4432;SDS011;2229;48.708;9.706;2024-03-23T03:26:51;2.43;;;1.67;;
4432;SDS011;2229;48.708;9.706;2024-03-23T03:29:18;4.67;;;2.60;;
4432;SDS011;2229;48.708;9.706;2024-03-23T03:31:45;3.10;;;2.30;;
4432;SDS011;2229;48.708;9.706;2024-03-23T03:34:12;9.10;;;4.13;;
4432;SDS011;2229;48.708;9.706;2024-03-23T03:36:41;7.33;;;2.90;;
4432;SDS011;2229;48.708;9.706;2024-03-23T03:39:08;7.00;;;3.70;;
4432;SDS011;2229;48.708;9.706;2024-03-23T03:41:35;3.90;;;2.30;;
4432;SDS011;2229;48.708;9.706;2024-03-23T03:44:02;4.90;;;2.40;;
4432;SDS011;2229;48.708;9.706;2024-03-23T03:46:28;6.47;;;2.90;;
4432;SDS011;2229;48.708;9.706;2024-03-23T03:48:57;7.00;;;3.37;;
4432;SDS011;2229;48.708;9.706;2024-03-23T03:51:23;4.10;;;2.60;;
4432;SDS011;2229;48.708;9.706;2024-03-23T03:53:50;3.80;;;2.33;;
4432;SDS011;2229;48.708;9.706;2024-03-23T03:56:16;4.17;;;2.33;;
4432;SDS011;2229;48.708;9.706;2024-03-23T03:58:43;4.50;;;2.40;;
4432;SDS011;2229;48.708;9.706;2024-03-23T04:01:09;4.83;;;2.43;;
4432;SDS011;2229;48.708;9.706;2024-03-23T04:03:36;5.50;;;1.90;;
4432;SDS011;2229;48.708;9.706;2024-03-23T04:06:06;5.50;;;2.50;;
4432;SDS011;2229;48.708;9.706;2024-03-23T04:08:44;5.23;;;2.90;;
4432;SDS011;2229;48.708;9.706;2024-03-23T04:11:10;5.70;;;2.00;;
4432;SDS011;2229;48.708;9.706;2024-03-23T04:13:37;4.10;;;2.37;;
4432;SDS011;2229;48.708;9.706;2024-03-23T04:16:06;4.33;;;2.53;;
4432;SDS011;2229;48.708;9.706;2024-03-23T04:18:35;3.40;;;2.10;;
4432;SDS011;2229;48.708;9.706;2024-03-23T04:21:01;3.30;;;2.03;;
4432;SDS011;2229;48.708;9.706;2024-03-23T04:23:38;3.67;;;2.10;;
4432;SDS011;2229;48.708;9.706;2024-03-23T04:26:04;7.53;;;3.83;;
4432;SDS011;2229;48.708;9.706;2024-03-23T04:28:31;6.43;;;2.73;;
4432;SDS011;2229;48.708;9.706;2024-03-23T04:30:57;4.03;;;2.50;;
4432;SDS011;2229;48.708;9.706;2024-03-23T04:33:24;3.20;;;1.57;;
4432;SDS011;2229;48.708;9.706;2024-03-23T04:35:50;4.67;;;1.80;;
4432;SDS011;2229;48.708;9.706;2024-03-23T04:38:17;3.40;;;2.00;;
4432;SDS011;2229;48.708;9.706;2024-03-23T04:40:47;3.87;;;1.80;;
4432;SDS011;2229;48.708;9.706;2024-03-23T04:43:20;3.00;;;1.50;;
4432;SDS011;2229;48.708;9.706;2024-03-23T04:45:47;3.00;;;1.53;;
4432;SDS011;2229;48.708;9.706;2024-03-23T04:48:15;4.43;;;1.60;;
4432;SDS011;2229;48.708;9.706;2024-03-23T04:50:42;6.33;;;2.20;;
4432;SDS011;2229;48.708;9.706;2024-03-23T04:53:08;4.10;;;1.40;;
4432;SDS011;2229;48.708;9.706;2024-03-23T04:55:35;1.90;;;1.30;;
4432;SDS011;2229;48.708;9.706;2024-03-23T04:58:04;3.37;;;2.00;;
4432;SDS011;2229;48.708;9.706;2024-03-23T05:00:30;2.70;;;1.40;;
4432;SDS011;2229;48.708;9.706;2024-03-23T05:02:57;4.37;;;1.50;;
4432;SDS011;2229;48.708;9.706;2024-03-23T05:05:24;3.83;;;2.00;;
4432;SDS011;2229;48.708;9.706;2024-03-23T05:07:51;6.97;;;2.20;;
4432;SDS011;2229;48.708;9.706;2024-03-23T05:10:18;5.87;;;2.73;;
4432;SDS011;2229;48.708;9.706;2024-03-23T05:12:44;9.67;;;2.27;;
4432;SDS011;2229;48.708;9.706;2024-03-23T05:15:13;9.20;;;2.27;;
4432;SDS011;2229;48.708;9.706;2024-03-23T05:17:39;3.40;;;1.80;;
4432;SDS011;2229;48.708;9.706;2024-03-23T05:20:06;2.37;;;1.60;;
4432;SDS011;2229;48.708;9.706;2024-03-23T05:22:35;4.93;;;2.67;;
4432;SDS011;2229;48.708;9.706;2024-03-23T05:25:02;3.40;;;1.90;;
4432;SDS011;2229;48.708;9.706;2024-03-23T05:27:30;6.00;;;2.30;;
4432;SDS011;2229;48.708;9.706;2024-03-23T05:29:57;5.00;;;2.17;;
4432;SDS011;2229;48.708;9.706;2024-03-23T05:32:25;4.60;;;2.23;;
4432;SDS011;2229;48.708;9.706;2024-03-23T05:34:55;6.97;;;1.80;;
4432;SDS011;2229;48.708;9.706;2024-03-23T05:37:22;4.50;;;1.73;;
4432;SDS011;2229;48.708;9.706;2024-03-23T05:42:41;6.90;;;3.70;;
4432;SDS011;2229;48.708;9.706;2024-03-23T05:45:08;7.40;;;3.77;;
4432;SDS011;2229;48.708;9.706;2024-03-23T05:47:36;13.93;;;5.27;;
4432;SDS011;2229;48.708;9.706;2024-03-23T05:50:05;13.20;;;5.37;;
4432;SDS011;2229;48.708;9.706;2024-03-23T05:52:31;8.93;;;4.67;;
4432;SDS011;2229;48.708;9.706;2024-03-23T05:54:59;6.97;;;4.30;;
4432;SDS011;2229;48.708;9.706;2024-03-23T05:57:26;12.83;;;6.00;;
4432;SDS011;2229;48.708;9.706;2024-03-23T05:59:56;7.90;;;5.53;;
4432;SDS011;2229;48.708;9.706;2024-03-23T06:02:23;8.90;;;4.60;;
4432;SDS011;2229;48.708;9.706;2024-03-23T06:04:52;9.33;;;4.97;;
4432;SDS011;2229;48.708;9.706;2024-03-23T06:07:19;11.10;;;5.27;;
4432;SDS011;2229;48.708;9.706;2024-03-23T06:09:47;15.83;;;6.77;;
4432;SDS011;2229;48.708;9.706;2024-03-23T06:12:20;11.97;;;5.13;;
4432;SDS011;2229;48.708;9.706;2024-03-23T06:14:57;9.63;;;5.10;;
4432;SDS011;2229;48.708;9.706;2024-03-23T06:17:27;14.60;;;6.27;;
4432;SDS011;2229;48.708;9.706;2024-03-23T06:20:00;12.23;;;5.13;;
4432;SDS011;2229;48.708;9.706;2024-03-23T06:25:22;9.47;;;4.27;;
4432;SDS011;2229;48.708;9.706;2024-03-23T06:27:48;9.37;;;4.20;;
4432;SDS011;2229;48.708;9.706;2024-03-23T06:30:16;10.10;;;5.03;;
4432;SDS011;2229;48.708;9.706;2024-03-23T06:32:45;7.37;;;3.40;;
4432;SDS011;2229;48.708;9.706;2024-03-23T06:35:15;6.77;;;3.83;;
4432;SDS011;2229;48.708;9.706;2024-03-23T06:37:45;7.50;;;3.73;;
4432;SDS011;2229;48.708;9.706;2024-03-23T06:40:13;7.47;;;3.00;;
4432;SDS011;2229;48.708;9.706;2024-03-23T06:42:39;5.53;;;2.73;;
4432;SDS011;2229;48.708;9.706;2024-03-23T06:45:07;8.20;;;3.40;;
4432;SDS011;2229;48.708;9.706;2024-03-23T06:47:34;5.60;;;2.40;;
4432;SDS011;2229;48.708;9.706;2024-03-23T06:50:03;8.53;;;3.70;;
4432;SDS011;2229;48.708;9.706;2024-03-23T06:52:36;6.37;;;2.80;;
4432;SDS011;2229;48.708;9.706;2024-03-23T06:55:03;13.43;;;3.57;;
4432;SDS011;2229;48.708;9.706;2024-03-23T06:57:31;4.90;;;2.00;;
4432;SDS011;2229;48.708;9.706;2024-03-23T06:59:58;6.67;;;2.57;;
4432;SDS011;2229;48.708;9.706;2024-03-23T07:02:27;4.67;;;2.33;;
4432;SDS011;2229;48.708;9.706;2024-03-23T07:04:56;3.90;;;1.90;;
4432;SDS011;2229;48.708;9.706;2024-03-23T07:07:23;4.07;;;1.93;;
4432;SDS011;2229;48.708;9.706;2024-03-23T07:09:52;5.10;;;2.30;;
4432;SDS011;2229;48.708;9.706;2024-03-23T07:15:11;4.27;;;1.70;;
4432;SDS011;2229;48.708;9.706;2024-03-23T07:17:38;3.27;;;1.83;;
4432;SDS011;2229;48.708;9.706;2024-03-23T07:20:05;4.87;;;2.00;;
4432;SDS011;2229;48.708;9.706;2024-03-23T07:22:36;3.47;;;1.63;;
4432;SDS011;2229;48.708;9.706;2024-03-23T07:25:06;3.73;;;2.40;;
4432;SDS011;2229;48.708;9.706;2024-03-23T07:27:36;3.20;;;1.43;;
4432;SDS011;2229;48.708;9.706;2024-03-23T07:32:47;1.60;;;0.80;;
4432;SDS011;2229;48.708;9.706;2024-03-23T07:35:16;2.63;;;0.90;;
4432;SDS011;2229;48.708;9.706;2024-03-23T07:37:45;1.87;;;0.97;;
4432;SDS011;2229;48.708;9.706;2024-03-23T07:40:26;1.77;;;0.67;;
4432;SDS011;2229;48.708;9.706;2024-03-23T07:42:53;1.80;;;0.80;;
4432;SDS011;2229;48.708;9.706;2024-03-23T07:45:20;1.10;;;0.50;;
4432;SDS011;2229;48.708;9.706;2024-03-23T07:47:52;1.00;;;0.40;;
4432;SDS011;2229;48.708;9.706;2024-03-23T07:50:18;1.00;;;0.40;;
4432;SDS011;2229;48.708;9.706;2024-03-23T07:52:50;1.27;;;0.50;;
4432;SDS011;2229;48.708;9.706;2024-03-23T07:55:17;1.03;;;0.50;;
4432;SDS011;2229;48.708;9.706;2024-03-23T07:57:48;1.50;;;0.50;;
4432;SDS011;2229;48.708;9.706;2024-03-23T08:00:17;2.50;;;0.50;;
4432;SDS011;2229;48.708;9.706;2024-03-23T08:02:48;1.20;;;0.40;;
4432;SDS011;2229;48.708;9.706;2024-03-23T08:05:18;1.87;;;0.60;;
4432;SDS011;2229;48.708;9.706;2024-03-23T08:07:50;1.30;;;0.70;;
4432;SDS011;2229;48.708;9.706;2024-03-23T08:10:16;1.30;;;0.50;;
4432;SDS011;2229;48.708;9.706;2024-03-23T08:12:45;1.10;;;0.50;;
4432;SDS011;2229;48.708;9.706;2024-03-23T08:15:13;1.33;;;0.40;;
4432;SDS011;2229;48.708;9.706;2024-03-23T08:17:41;1.70;;;0.70;;
4432;SDS011;2229;48.708;9.706;2024-03-23T08:20:07;1.07;;;0.43;;
4432;SDS011;2229;48.708;9.706;2024-03-23T08:22:36;1.60;;;0.40;;
4432;SDS011;2229;48.708;9.706;2024-03-23T08:25:06;1.00;;;0.37;;
4432;SDS011;2229;48.708;9.706;2024-03-23T08:27:33;1.00;;;0.40;;
4432;SDS011;2229;48.708;9.706;2024-03-23T08:30:01;1.00;;;0.40;;
4432;SDS011;2229;48.708;9.706;2024-03-23T08:32:28;1.00;;;0.40;;
4432;SDS011;2229;48.708;9.706;2024-03-23T08:34:54;1.00;;;0.40;;
4432;SDS011;2229;48.708;9.706;2024-03-23T08:37:21;1.40;;;0.57;;
4432;SDS011;2229;48.708;9.706;2024-03-23T08:39:50;1.00;;;0.30;;
4432;SDS011;2229;48.708;9.706;2024-03-23T08:42:19;1.00;;;0.40;;
4432;SDS011;2229;48.708;9.706;2024-03-23T08:44:56;1.00;;;0.40;;
4432;SDS011;2229;48.708;9.706;2024-03-23T08:47:25;1.10;;;0.50;;
4432;SDS011;2229;48.708;9.706;2024-03-23T08:49:52;1.10;;;0.43;;
4432;SDS011;2229;48.708;9.706;2024-03-23T08:52:19;1.10;;;0.50;;
4432;SDS011;2229;48.708;9.706;2024-03-23T08:54:48;1.10;;;0.57;;
4432;SDS011;2229;48.708;9.706;2024-03-23T08:57:16;1.00;;;0.40;;
4432;SDS011;2229;48.708;9.706;2024-03-23T08:59:43;1.10;;;0.60;;
4432;SDS011;2229;48.708;9.706;2024-03-23T09:02:13;1.10;;;0.40;;
4432;SDS011;2229;48.708;9.706;2024-03-23T09:04:41;1.73;;;0.83;;
4432;SDS011;2229;48.708;9.706;2024-03-23T09:07:08;1.10;;;0.60;;
4432;SDS011;2229;48.708;9.706;2024-03-23T09:09:37;3.40;;;0.50;;
4432;SDS011;2229;48.708;9.706;2024-03-23T09:12:08;1.10;;;0.40;;
4432;SDS011;2229;48.708;9.706;2024-03-23T09:14:35;1.00;;;0.40;;
4432;SDS011;2229;48.708;9.706;2024-03-23T09:17:03;1.23;;;0.70;;
4432;SDS011;2229;48.708;9.706;2024-03-23T09:19:29;2.80;;;0.60;;
4432;SDS011;2229;48.708;9.706;2024-03-23T09:21:59;1.63;;;0.60;;
4432;SDS011;2229;48.708;9.706;2024-03-23T09:24:26;1.43;;;0.63;;
4432;SDS011;2229;48.708;9.706;2024-03-23T09:26:55;1.27;;;0.60;;
4432;SDS011;2229;48.708;9.706;2024-03-23T09:29:21;7.33;;;1.00;;
4432;SDS011;2229;48.708;9.706;2024-03-23T09:31:49;2.83;;;0.93;;
4432;SDS011;2229;48.708;9.706;2024-03-23T09:34:15;1.87;;;0.70;;
4432;SDS011;2229;48.708;9.706;2024-03-23T09:36:50;1.57;;;0.80;;
4432;SDS011;2229;48.708;9.706;2024-03-23T09:39:18;1.60;;;0.80;;
4432;SDS011;2229;48.708;9.706;2024-03-23T09:41:49;2.13;;;1.27;;
4432;SDS011;2229;48.708;9.706;2024-03-23T09:44:15;3.37;;;1.17;;
4432;SDS011;2229;48.708;9.706;2024-03-23T09:46:42;2.20;;;0.90;;
4432;SDS011;2229;48.708;9.706;2024-03-23T09:49:08;3.73;;;1.40;;
4432;SDS011;2229;48.708;9.706;2024-03-23T09:51:36;3.83;;;1.57;;
4432;SDS011;2229;48.708;9.706;2024-03-23T09:54:03;3.93;;;1.47;;
4432;SDS011;2229;48.708;9.706;2024-03-23T09:56:31;4.10;;;1.37;;
4432;SDS011;2229;48.708;9.706;2024-03-23T09:59:01;2.10;;;1.00;;
4432;SDS011;2229;48.708;9.706;2024-03-23T10:01:29;2.00;;;1.40;;
4432;SDS011;2229;48.708;9.706;2024-03-23T10:03:56;2.80;;;1.03;;
4432;SDS011;2229;48.708;9.706;2024-03-23T10:06:23;4.63;;;1.30;;
4432;SDS011;2229;48.708;9.706;2024-03-23T10:08:51;4.10;;;1.63;;
4432;SDS011;2229;48.708;9.706;2024-03-23T10:11:22;10.43;;;1.20;;
4432;SDS011;2229;48.708;9.706;2024-03-23T10:13:54;3.50;;;1.20;;
4432;SDS011;2229;48.708;9.706;2024-03-23T10:16:25;4.33;;;1.33;;
4432;SDS011;2229;48.708;9.706;2024-03-23T10:18:52;2.67;;;1.03;;
4432;SDS011;2229;48.708;9.706;2024-03-23T10:21:19;2.63;;;1.13;;
4432;SDS011;2229;48.708;9.706;2024-03-23T10:23:47;3.93;;;1.77;;
4432;SDS011;2229;48.708;9.706;2024-03-23T10:26:17;3.10;;;1.37;;
4432;SDS011;2229;48.708;9.706;2024-03-23T10:28:51;2.10;;;1.00;;
4432;SDS011;2229;48.708;9.706;2024-03-23T10:31:25;2.20;;;1.10;;
4432;SDS011;2229;48.708;9.706;2024-03-23T10:33:52;3.30;;;1.50;;
4432;SDS011;2229;48.708;9.706;2024-03-23T10:36:29;2.27;;;1.53;;
4432;SDS011;2229;48.708;9.706;2024-03-23T10:41:51;2.70;;;0.83;;
4432;SDS011;2229;48.708;9.706;2024-03-23T10:44:25;3.00;;;1.23;;
4432;SDS011;2229;48.708;9.706;2024-03-23T10:47:00;4.27;;;1.20;;
4432;SDS011;2229;48.708;9.706;2024-03-23T10:49:29;2.07;;;1.30;;
4432;SDS011;2229;48.708;9.706;2024-03-23T10:51:58;3.20;;;1.17;;
4432;SDS011;2229;48.708;9.706;2024-03-23T10:54:30;2.03;;;0.90;;
4432;SDS011;2229;48.708;9.706;2024-03-23T10:56:59;5.53;;;1.47;;
4432;SDS011;2229;48.708;9.706;2024-03-23T10:59:36;3.30;;;1.50;;
4432;SDS011;2229;48.708;9.706;2024-03-23T11:02:05;5.73;;;1.77;;
4432;SDS011;2229;48.708;9.706;2024-03-23T11:04:37;3.20;;;1.20;;
4432;SDS011;2229;48.708;9.706;2024-03-23T11:07:11;9.30;;;2.67;;
4432;SDS011;2229;48.708;9.706;2024-03-23T11:09:54;5.00;;;1.80;;
4432;SDS011;2229;48.708;9.706;2024-03-23T11:12:26;5.20;;;2.07;;
4432;SDS011;2229;48.708;9.706;2024-03-23T11:14:56;2.90;;;1.10;;
4432;SDS011;2229;48.708;9.706;2024-03-23T11:17:26;1.80;;;1.30;;
4432;SDS011;2229;48.708;9.706;2024-03-23T11:19:53;6.90;;;1.63;;
4432;SDS011;2229;48.708;9.706;2024-03-23T11:25:12;5.23;;;1.57;;
4432;SDS011;2229;48.708;9.706;2024-03-23T11:27:40;7.20;;;1.60;;
4432;SDS011;2229;48.708;9.706;2024-03-23T11:30:20;2.80;;;1.23;;
4432;SDS011;2229;48.708;9.706;2024-03-23T11:32:50;7.43;;;1.53;;
4432;SDS011;2229;48.708;9.706;2024-03-23T11:35:25;4.23;;;2.33;;
4432;SDS011;2229;48.708;9.706;2024-03-23T11:38:04;10.80;;;1.67;;
4432;SDS011;2229;48.708;9.706;2024-03-23T11:40:30;8.00;;;1.53;;
4432;SDS011;2229;48.708;9.706;2024-03-23T11:42:59;3.43;;;2.00;;
4432;SDS011;2229;48.708;9.706;2024-03-23T11:45:27;4.00;;;1.97;;
4432;SDS011;2229;48.708;9.706;2024-03-23T11:48:02;3.10;;;1.33;;
4432;SDS011;2229;48.708;9.706;2024-03-23T11:50:32;5.43;;;1.60;;
4432;SDS011;2229;48.708;9.706;2024-03-23T11:53:13;2.33;;;1.40;;
4432;SDS011;2229;48.708;9.706;2024-03-23T11:55:48;3.30;;;2.00;;
4432;SDS011;2229;48.708;9.706;2024-03-23T11:58:18;4.27;;;1.50;;
4432;SDS011;2229;48.708;9.706;2024-03-23T12:00:52;3.47;;;1.27;;
4432;SDS011;2229;48.708;9.706;2024-03-23T12:03:22;3.27;;;1.70;;
4432;SDS011;2229;48.708;9.706;2024-03-23T12:05:53;2.63;;;1.20;;
4432;SDS011;2229;48.708;9.706;2024-03-23T12:08:22;3.10;;;1.37;;
4432;SDS011;2229;48.708;9.706;2024-03-23T12:10:51;5.00;;;2.73;;
4432;SDS011;2229;48.708;9.706;2024-03-23T12:13:31;5.07;;;1.47;;
4432;SDS011;2229;48.708;9.706;2024-03-23T12:18:56;2.20;;;1.00;;
4432;SDS011;2229;48.708;9.706;2024-03-23T12:21:31;5.13;;;1.57;;
4432;SDS011;2229;48.708;9.706;2024-03-23T12:23:58;3.20;;;1.20;;
4432;SDS011;2229;48.708;9.706;2024-03-23T12:26:26;6.63;;;1.80;;
4432;SDS011;2229;48.708;9.706;2024-03-23T12:28:53;7.13;;;2.07;;
4432;SDS011;2229;48.708;9.706;2024-03-23T12:31:21;3.73;;;1.40;;
4432;SDS011;2229;48.708;9.706;2024-03-23T12:33:48;2.13;;;1.10;;
4432;SDS011;2229;48.708;9.706;2024-03-23T12:36:14;2.03;;;1.07;;
4432;SDS011;2229;48.708;9.706;2024-03-23T12:38:41;1.80;;;0.70;;
4432;SDS011;2229;48.708;9.706;2024-03-23T12:41:09;3.20;;;1.40;;
4432;SDS011;2229;48.708;9.706;2024-03-23T12:43:36;2.30;;;1.00;;
4432;SDS011;2229;48.708;9.706;2024-03-23T12:46:03;2.30;;;1.20;;
4432;SDS011;2229;48.708;9.706;2024-03-23T12:48:31;2.60;;;1.40;;
4432;SDS011;2229;48.708;9.706;2024-03-23T12:50:57;2.73;;;1.00;;
4432;SDS011;2229;48.708;9.706;2024-03-23T12:53:25;2.47;;;0.97;;
4432;SDS011;2229;48.708;9.706;2024-03-23T12:55:53;3.97;;;0.83;;
4432;SDS011;2229;48.708;9.706;2024-03-23T12:58:22;3.53;;;1.43;;
4432;SDS011;2229;48.708;9.706;2024-03-23T13:00:48;2.60;;;1.00;;
4432;SDS011;2229;48.708;9.706;2024-03-23T13:03:15;2.60;;;1.10;;
4432;SDS011;2229;48.708;9.706;2024-03-23T13:05:43;3.47;;;1.20;;
4432;SDS011;2229;48.708;9.706;2024-03-23T13:08:10;3.70;;;1.60;;
4432;SDS011;2229;48.708;9.706;2024-03-23T13:10:36;2.03;;;0.63;;
4432;SDS011;2229;48.708;9.706;2024-03-23T13:13:03;1.73;;;0.90;;
4432;SDS011;2229;48.708;9.706;2024-03-23T13:15:29;2.40;;;1.00;;
4432;SDS011;2229;48.708;9.706;2024-03-23T13:18:00;2.57;;;1.00;;
4432;SDS011;2229;48.708;9.706;2024-03-23T13:20:26;1.60;;;0.60;;
4432;SDS011;2229;48.708;9.706;2024-03-23T13:22:55;2.23;;;0.87;;
4432;SDS011;2229;48.708;9.706;2024-03-23T13:25:21;4.60;;;0.87;;
4432;SDS011;2229;48.708;9.706;2024-03-23T13:27:48;4.77;;;0.93;;
4432;SDS011;2229;48.708;9.706;2024-03-23T13:30:14;3.43;;;1.60;;
4432;SDS011;2229;48.708;9.706;2024-03-23T13:32:44;3.40;;;1.17;;
4432;SDS011;2229;48.708;9.706;2024-03-23T13:35:10;12.63;;;1.80;;
4432;SDS011;2229;48.708;9.706;2024-03-23T13:37:38;5.10;;;1.50;;
4432;SDS011;2229;48.708;9.706;2024-03-23T13:40:07;11.30;;;1.30;;
4432;SDS011;2229;48.708;9.706;2024-03-23T13:42:41;5.40;;;1.20;;
4432;SDS011;2229;48.708;9.706;2024-03-23T13:45:07;6.43;;;1.67;;
4432;SDS011;2229;48.708;9.706;2024-03-23T13:47:37;6.07;;;1.50;;
4432;SDS011;2229;48.708;9.706;2024-03-23T13:50:04;7.67;;;1.30;;
4432;SDS011;2229;48.708;9.706;2024-03-23T13:52:33;3.50;;;1.13;;
4432;SDS011;2229;48.708;9.706;2024-03-23T13:55:00;4.60;;;1.20;;
4432;SDS011;2229;48.708;9.706;2024-03-23T13:57:34;3.63;;;1.07;;
4432;SDS011;2229;48.708;9.706;2024-03-23T14:00:00;4.13;;;1.60;;
4432;SDS011;2229;48.708;9.706;2024-03-23T14:02:41;2.70;;;1.30;;
4432;SDS011;2229;48.708;9.706;2024-03-23T14:05:07;3.80;;;1.27;;
4432;SDS011;2229;48.708;9.706;2024-03-23T14:07:36;2.73;;;1.20;;
4432;SDS011;2229;48.708;9.706;2024-03-23T14:10:03;2.73;;;1.10;;
4432;SDS011;2229;48.708;9.706;2024-03-23T14:12:33;2.70;;;0.90;;
4432;SDS011;2229;48.708;9.706;2024-03-23T14:14:59;2.53;;;1.00;;
4432;SDS011;2229;48.708;9.706;2024-03-23T14:17:28;1.77;;;0.90;;
4432;SDS011;2229;48.708;9.706;2024-03-23T14:19:58;1.10;;;0.40;;
4432;SDS011;2229;48.708;9.706;2024-03-23T14:22:29;1.40;;;0.90;;
4432;SDS011;2229;48.708;9.706;2024-03-23T14:24:56;4.60;;;0.87;;
4432;SDS011;2229;48.708;9.706;2024-03-23T14:27:24;1.30;;;0.70;;
4432;SDS011;2229;48.708;9.706;2024-03-23T14:29:55;1.63;;;1.07;;
4432;SDS011;2229;48.708;9.706;2024-03-23T14:32:25;1.57;;;0.73;;
4432;SDS011;2229;48.708;9.706;2024-03-23T14:35:04;1.30;;;0.60;;
4432;SDS011;2229;48.708;9.706;2024-03-23T14:37:36;1.30;;;0.70;;
4432;SDS011;2229;48.708;9.706;2024-03-23T14:40:07;2.20;;;0.83;;
4432;SDS011;2229;48.708;9.706;2024-03-23T14:42:37;1.97;;;0.70;;
4432;SDS011;2229;48.708;9.706;2024-03-23T14:45:06;3.07;;;0.80;;
4432;SDS011;2229;48.708;9.706;2024-03-23T14:47:45;1.60;;;1.00;;
4432;SDS011;2229;48.708;9.706;2024-03-23T14:50:32;2.23;;;0.70;;
4432;SDS011;2229;48.708;9.706;2024-03-23T14:53:09;1.53;;;0.80;;
4432;SDS011;2229;48.708;9.706;2024-03-23T14:56:03;1.43;;;0.70;;
4432;SDS011;2229;48.708;9.706;2024-03-23T14:58:44;2.70;;;1.17;;
4432;SDS011;2229;48.708;9.706;2024-03-23T15:04:16;1.20;;;0.70;;
4432;SDS011;2229;48.708;9.706;2024-03-23T15:06:48;1.77;;;0.70;;
4432;SDS011;2229;48.708;9.706;2024-03-23T15:09:31;2.60;;;0.80;;
4432;SDS011;2229;48.708;9.706;2024-03-23T15:15:07;1.10;;;0.50;;
4432;SDS011;2229;48.708;9.706;2024-03-23T15:17:39;1.87;;;0.60;;
4432;SDS011;2229;48.708;9.706;2024-03-23T15:20:15;2.70;;;0.60;;
4432;SDS011;2229;48.708;9.706;2024-03-23T15:22:45;1.20;;;0.70;;
4432;SDS011;2229;48.708;9.706;2024-03-23T15:25:12;4.30;;;1.37;;
4432;SDS011;2229;48.708;9.706;2024-03-23T15:27:46;1.40;;;0.53;;
4432;SDS011;2229;48.708;9.706;2024-03-23T15:30:13;5.00;;;0.73;;
4432;SDS011;2229;48.708;9.706;2024-03-23T15:32:46;3.23;;;0.60;;
4432;SDS011;2229;48.708;9.706;2024-03-23T15:35:12;1.83;;;0.77;;
4432;SDS011;2229;48.708;9.706;2024-03-23T15:37:40;1.20;;;0.40;;
4432;SDS011;2229;48.708;9.706;2024-03-23T15:40:09;1.33;;;0.67;;
4432;SDS011;2229;48.708;9.706;2024-03-23T15:42:38;1.10;;;0.40;;
4432;SDS011;2229;48.708;9.706;2024-03-23T15:45:06;2.33;;;0.87;;
4432;SDS011;2229;48.708;9.706;2024-03-23T15:47:37;2.90;;;1.20;;
4432;SDS011;2229;48.708;9.706;2024-03-23T15:50:05;1.80;;;0.87;;
4432;SDS011;2229;48.708;9.706;2024-03-23T15:52:35;1.30;;;0.50;;
4432;SDS011;2229;48.708;9.706;2024-03-23T15:55:05;1.40;;;0.70;;
4432;SDS011;2229;48.708;9.706;2024-03-23T15:57:35;2.93;;;0.70;;
4432;SDS011;2229;48.708;9.706;2024-03-23T16:00:02;1.73;;;0.80;;
4432;SDS011;2229;48.708;9.706;2024-03-23T16:05:27;1.10;;;0.50;;
4432;SDS011;2229;48.708;9.706;2024-03-23T16:07:57;1.30;;;0.60;;
4432;SDS011;2229;48.708;9.706;2024-03-23T16:10:34;1.20;;;0.70;;
4432;SDS011;2229;48.708;9.706;2024-03-23T16:13:01;2.60;;;0.80;;
4432;SDS011;2229;48.708;9.706;2024-03-23T16:15:27;1.40;;;0.80;;
4432;SDS011;2229;48.708;9.706;2024-03-23T16:17:58;1.30;;;0.60;;
4432;SDS011;2229;48.708;9.706;2024-03-23T16:23:31;6.07;;;0.80;;
4432;SDS011;2229;48.708;9.706;2024-03-23T16:26:09;2.50;;;0.77;;
4432;SDS011;2229;48.708;9.706;2024-03-23T16:29:02;4.53;;;1.00;;
4432;SDS011;2229;48.708;9.706;2024-03-23T16:31:29;1.53;;;0.90;;
4432;SDS011;2229;48.708;9.706;2024-03-23T16:33:56;3.23;;;0.70;;
4432;SDS011;2229;48.708;9.706;2024-03-23T16:36:24;1.10;;;0.60;;
4432;SDS011;2229;48.708;9.706;2024-03-23T16:38:51;2.50;;;1.03;;
4432;SDS011;2229;48.708;9.706;2024-03-23T16:41:17;2.90;;;0.88;;
4432;SDS011;2229;48.708;9.706;2024-03-23T16:43:47;1.10;;;0.50;;
4432;SDS011;2229;48.708;9.706;2024-03-23T16:46:14;1.60;;;1.13;;
4432;SDS011;2229;48.708;9.706;2024-03-23T16:48:45;1.50;;;0.70;;